createdAt,value
2019-03-15T00:01:07.572Z,6.40
2019-03-15T00:05:16.144Z,6.40
2019-03-15T00:09:23.751Z,6.50
2019-03-15T00:13:31.964Z,6.50
2019-03-15T00:17:40.148Z,6.50
2019-03-15T00:21:48.684Z,6.50
2019-03-15T00:25:56.901Z,6.60
2019-03-15T00:30:06.059Z,6.60
2019-03-15T00:34:14.646Z,6.60
2019-03-15T00:38:23.916Z,6.60
2019-03-15T00:42:31.362Z,6.60
2019-03-15T00:46:39.601Z,6.50
2019-03-15T00:50:48.325Z,6.40
2019-03-15T00:54:56.540Z,6.30
2019-03-15T00:59:04.740Z,6.20
2019-03-15T01:03:12.512Z,6.10
2019-03-15T01:07:20.046Z,6.00
2019-03-15T01:11:28.281Z,5.80
2019-03-15T01:15:36.463Z,5.80
2019-03-15T01:19:44.601Z,5.80
2019-03-15T01:23:52.841Z,5.80
2019-03-15T01:28:00.469Z,5.70
2019-03-15T01:32:08.699Z,5.60
2019-03-15T01:36:16.812Z,5.60
2019-03-15T01:40:24.996Z,5.60
2019-03-15T01:44:32.534Z,5.60
2019-03-15T01:48:40.108Z,5.50
2019-03-15T01:52:48.983Z,5.50
2019-03-15T01:56:57.244Z,5.60
2019-03-15T02:01:04.792Z,5.60
2019-03-15T02:05:13.497Z,5.60
2019-03-15T02:09:21.019Z,5.60
2019-03-15T02:13:28.527Z,5.60
2019-03-15T02:17:36.696Z,5.60
2019-03-15T02:21:46.025Z,5.60
2019-03-15T02:25:54.295Z,5.50
2019-03-15T02:30:02.548Z,5.40
2019-03-15T02:34:10.021Z,5.30
2019-03-15T02:38:18.350Z,5.40
2019-03-15T02:42:26.625Z,5.40
2019-03-15T02:46:34.044Z,5.50
2019-03-15T02:50:41.703Z,5.60
2019-03-15T02:54:50.034Z,5.60
2019-03-15T02:58:57.528Z,5.70
2019-03-15T03:03:05.038Z,5.70
2019-03-15T03:07:14.002Z,5.70
2019-03-15T03:11:21.665Z,5.80
2019-03-15T03:15:30.361Z,5.80
2019-03-15T03:19:37.877Z,5.80
2019-03-15T03:23:45.804Z,5.80
2019-03-15T03:27:53.979Z,5.80
2019-03-15T03:32:02.168Z,5.90
2019-03-15T03:36:10.415Z,5.90
2019-03-15T03:40:20.185Z,6.00
2019-03-15T03:44:26.659Z,6.00
2019-03-15T03:48:35.458Z,6.00
2019-03-15T03:52:43.234Z,6.00
2019-03-15T03:56:51.552Z,6.10
2019-03-15T04:00:59.039Z,6.20
2019-03-15T04:05:07.207Z,6.20
2019-03-15T04:09:15.148Z,6.30
2019-03-15T04:13:23.263Z,6.30
2019-03-15T04:17:33.465Z,6.30
2019-03-15T04:21:42.937Z,6.40
2019-03-15T04:25:51.182Z,6.40
2019-03-15T04:29:58.659Z,6.50
2019-03-15T04:34:11.027Z,6.50
2019-03-15T04:38:18.911Z,6.60
2019-03-15T04:42:26.420Z,6.60
2019-03-15T04:46:34.603Z,6.60
2019-03-15T04:50:42.995Z,6.60
2019-03-15T04:54:50.555Z,6.70
2019-03-15T04:58:58.159Z,6.70
2019-03-15T05:03:06.504Z,6.70
2019-03-15T05:07:15.201Z,6.70
2019-03-15T05:11:22.760Z,6.70
2019-03-15T05:15:30.923Z,6.70
2019-03-15T05:19:39.114Z,6.70
2019-03-15T05:23:48.101Z,6.70
2019-03-15T05:27:56.295Z,6.70
2019-03-15T05:32:04.601Z,6.70
2019-03-15T05:36:13.394Z,6.70
2019-03-15T05:40:21.025Z,6.60
2019-03-15T05:44:28.550Z,6.60
2019-03-15T05:48:36.030Z,6.60
2019-03-15T05:52:43.535Z,6.60
2019-03-15T05:56:51.015Z,6.60
2019-03-15T06:00:58.531Z,6.70
2019-03-15T06:05:08.825Z,6.70
2019-03-15T06:09:13.503Z,6.70
2019-03-15T06:13:21.068Z,6.80
2019-03-15T06:17:29.259Z,6.80
2019-03-15T06:21:36.867Z,6.80
2019-03-15T06:25:44.884Z,6.80
2019-03-15T06:29:53.044Z,6.80
2019-03-15T06:34:01.235Z,6.80
2019-03-15T06:38:09.447Z,6.90
2019-03-15T06:42:17.615Z,6.90
2019-03-15T06:46:25.115Z,6.90
2019-03-15T06:50:32.640Z,6.90
2019-03-15T06:54:40.121Z,7.00
2019-03-15T06:58:48.280Z,7.00
2019-03-15T07:02:55.867Z,7.00
2019-03-15T07:07:04.159Z,7.10
2019-03-15T07:11:12.379Z,7.20
2019-03-15T07:15:19.855Z,7.20
2019-03-15T07:19:30.313Z,7.30
2019-03-15T07:23:34.836Z,7.30
2019-03-15T07:27:43.270Z,7.40
2019-03-15T07:31:51.184Z,7.50
2019-03-15T07:35:59.557Z,7.60
2019-03-15T07:40:07.503Z,7.70
2019-03-15T07:44:15.073Z,7.80
2019-03-15T07:48:25.641Z,7.90
2019-03-15T07:52:30.975Z,8.00
2019-03-15T07:56:38.623Z,8.10
2019-03-15T08:00:47.006Z,8.20
2019-03-15T08:04:54.409Z,8.30
2019-03-15T08:09:02.581Z,8.50
2019-03-15T08:13:10.806Z,8.60
2019-03-15T08:17:18.967Z,8.80
2019-03-15T08:21:27.223Z,8.90
2019-03-15T08:25:35.392Z,9.00
2019-03-15T08:29:43.548Z,9.20
2019-03-15T08:33:51.042Z,9.40
2019-03-15T08:37:58.524Z,9.60
2019-03-15T08:42:06.674Z,9.80
2019-03-15T08:46:14.958Z,9.90
2019-03-15T08:50:24.532Z,10.00
2019-03-15T08:54:31.394Z,10.10
2019-03-15T08:58:39.650Z,10.20
2019-03-15T09:02:47.906Z,10.30
2019-03-15T09:06:56.072Z,10.50
2019-03-15T09:11:04.298Z,10.60
2019-03-15T09:15:11.782Z,10.70
2019-03-15T09:19:19.338Z,10.80
2019-03-15T09:23:27.507Z,11.00
2019-03-15T09:27:37.198Z,11.10
2019-03-15T09:31:47.953Z,11.10
2019-03-15T09:35:52.866Z,11.20
2019-03-15T09:40:01.077Z,11.30
2019-03-15T09:44:09.233Z,11.60
2019-03-15T09:48:17.450Z,11.80
2019-03-15T09:52:25.667Z,11.90
2019-03-15T09:56:33.811Z,11.90
2019-03-15T10:00:42.007Z,11.90
2019-03-15T10:04:50.151Z,12.00
2019-03-15T10:08:58.368Z,12.00
2019-03-15T10:13:06.629Z,12.00
2019-03-15T10:17:14.010Z,12.10
2019-03-15T10:21:21.526Z,12.20
2019-03-15T10:25:29.734Z,12.30
2019-03-15T10:29:37.897Z,12.60
2019-03-15T10:33:50.650Z,12.70
2019-03-15T10:37:54.256Z,12.70
2019-03-15T10:42:02.427Z,12.70
2019-03-15T10:46:09.963Z,12.70
2019-03-15T10:50:18.151Z,12.90
2019-03-15T10:54:26.363Z,13.10
2019-03-15T10:58:33.848Z,13.10
2019-03-15T11:02:42.004Z,13.30
2019-03-15T11:06:49.519Z,13.30
2019-03-15T11:10:57.387Z,13.30
2019-03-15T11:15:06.508Z,13.40
2019-03-15T11:19:15.692Z,13.60
2019-03-15T11:23:22.831Z,13.60
2019-03-15T11:27:31.083Z,13.40
2019-03-15T11:31:39.268Z,13.30
2019-03-15T11:35:47.450Z,13.30
2019-03-15T11:39:55.619Z,13.30
2019-03-15T11:44:03.798Z,13.20
2019-03-15T11:48:11.968Z,13.30
2019-03-15T11:52:20.226Z,13.30
2019-03-15T11:56:28.373Z,13.30
2019-03-15T12:00:36.513Z,13.30
2019-03-15T12:04:44.643Z,13.50
2019-03-15T12:08:52.778Z,13.30
2019-03-15T12:13:00.907Z,13.20
2019-03-15T12:17:09.053Z,13.10
2019-03-15T12:21:17.209Z,12.90
2019-03-15T12:25:24.649Z,12.90
2019-03-15T12:29:33.021Z,12.80
2019-03-15T12:33:41.173Z,12.70
2019-03-15T12:37:48.658Z,12.70
2019-03-15T12:41:56.863Z,12.70
2019-03-15T12:46:04.979Z,12.60
2019-03-15T12:50:13.126Z,12.60
2019-03-15T12:54:21.377Z,12.60
2019-03-15T12:58:29.501Z,12.50
2019-03-15T13:02:36.966Z,12.60
2019-03-15T13:06:44.429Z,12.70
2019-03-15T13:10:51.937Z,12.70
2019-03-15T13:14:59.410Z,12.70
2019-03-15T13:19:07.563Z,12.60
2019-03-15T13:23:15.958Z,12.50
2019-03-15T13:27:23.534Z,12.40
2019-03-15T13:31:31.033Z,12.40
2019-03-15T13:35:38.487Z,12.40
2019-03-15T13:39:46.037Z,12.30
2019-03-15T13:43:53.525Z,12.20
2019-03-15T13:48:01.009Z,12.20
2019-03-15T13:52:10.218Z,12.30
2019-03-15T13:56:18.365Z,12.50
2019-03-15T14:00:25.829Z,12.60
2019-03-15T14:04:33.297Z,12.50
2019-03-15T14:08:41.497Z,12.50
2019-03-15T14:12:49.025Z,12.50
2019-03-15T14:16:57.152Z,12.50
2019-03-15T14:21:04.675Z,12.30
2019-03-15T14:25:12.782Z,12.30
2019-03-15T14:29:20.910Z,12.30
2019-03-15T14:33:29.161Z,12.20
2019-03-15T14:37:36.850Z,12.20
2019-03-15T14:41:45.102Z,12.20
2019-03-15T14:45:53.135Z,12.10
2019-03-15T14:50:00.943Z,12.00
2019-03-15T14:54:08.441Z,11.90
2019-03-15T14:58:16.556Z,11.80
2019-03-15T15:02:24.681Z,11.80
2019-03-15T15:06:32.874Z,11.80
2019-03-15T15:10:41.003Z,11.80
2019-03-15T15:18:59.469Z,11.80
2019-03-15T15:23:08.960Z,11.70
2019-03-15T15:27:17.121Z,11.70
2019-03-15T15:31:25.250Z,11.70
2019-03-15T15:35:33.479Z,11.60
2019-03-15T15:39:41.534Z,11.50
2019-03-15T15:43:49.012Z,11.50
2019-03-15T15:47:56.461Z,11.40
2019-03-15T15:52:03.977Z,11.40
2019-03-15T15:56:11.547Z,11.40
2019-03-15T16:00:19.008Z,11.40
2019-03-15T16:04:27.877Z,11.30
2019-03-15T16:08:35.365Z,11.30
2019-03-15T16:12:43.490Z,11.30
2019-03-15T16:16:51.644Z,11.30
2019-03-15T16:20:59.121Z,11.20
2019-03-15T16:25:07.255Z,11.20
2019-03-15T16:29:15.489Z,11.20
2019-03-15T16:33:23.742Z,11.20
2019-03-15T16:37:31.798Z,11.20
2019-03-15T16:41:39.921Z,11.20
2019-03-15T16:45:48.066Z,11.20
2019-03-15T16:49:55.518Z,11.20
2019-03-15T16:54:03.717Z,11.20
2019-03-15T16:58:11.865Z,11.10
2019-03-15T17:02:20.101Z,11.20
2019-03-15T17:06:28.175Z,11.10
2019-03-15T17:10:35.657Z,11.10
2019-03-15T17:14:43.113Z,11.10
2019-03-15T17:18:50.674Z,11.00
2019-03-15T17:22:58.641Z,11.00
2019-03-15T17:27:06.119Z,11.00
2019-03-15T17:31:13.587Z,11.00
2019-03-15T17:35:21.044Z,11.00
2019-03-15T17:39:28.566Z,11.00
2019-03-15T17:43:36.781Z,11.10
2019-03-15T17:47:44.257Z,11.00
2019-03-15T17:51:51.709Z,11.00
2019-03-15T17:55:59.937Z,11.00
2019-03-15T18:00:17.325Z,11.00
2019-03-15T18:04:24.813Z,11.00
2019-03-15T18:08:32.286Z,11.00
2019-03-15T18:12:40.520Z,10.90
2019-03-15T18:16:48.709Z,11.00
2019-03-15T18:20:56.189Z,10.90
2019-03-15T18:25:03.679Z,10.90
2019-03-15T18:29:11.473Z,10.90
2019-03-15T18:33:19.631Z,10.90
2019-03-15T18:37:27.077Z,10.90
2019-03-15T18:41:34.577Z,10.90
2019-03-15T18:45:42.042Z,11.00
2019-03-15T18:49:50.189Z,11.00
2019-03-15T18:53:57.707Z,10.90
2019-03-15T18:58:05.858Z,10.90
2019-03-15T19:02:14.077Z,10.90
2019-03-15T19:06:22.322Z,10.90
2019-03-15T19:10:30.467Z,10.90
2019-03-15T19:14:37.929Z,10.90
2019-03-15T19:18:46.068Z,10.90
2019-03-15T19:22:53.645Z,10.90
2019-03-15T19:27:01.786Z,10.90
2019-03-15T19:31:09.935Z,10.90
2019-03-15T19:35:18.141Z,10.90
2019-03-15T19:39:25.696Z,10.90
2019-03-15T19:43:33.834Z,10.90
2019-03-15T19:47:42.052Z,10.90
2019-03-15T19:51:49.530Z,10.90
2019-03-15T19:55:56.992Z,10.90
2019-03-15T20:00:08.170Z,10.80
2019-03-15T20:04:13.070Z,10.80
2019-03-15T20:08:20.569Z,10.80
2019-03-15T20:12:28.408Z,10.80
2019-03-15T20:16:37.209Z,10.80
2019-03-15T20:20:45.418Z,10.80
2019-03-15T20:24:52.919Z,10.80
2019-03-15T20:29:00.500Z,10.80
2019-03-15T20:33:08.643Z,10.80
2019-03-15T20:37:16.402Z,10.80
2019-03-15T20:41:24.558Z,10.90
2019-03-15T20:45:32.060Z,10.90
2019-03-15T20:49:39.577Z,10.80
2019-03-15T20:53:47.096Z,10.90
2019-03-15T20:57:55.666Z,10.90
2019-03-15T21:02:03.178Z,10.90
2019-03-15T21:06:11.362Z,10.90
2019-03-15T21:10:18.966Z,10.90
2019-03-15T21:14:27.124Z,10.90
2019-03-15T21:18:34.615Z,10.80
2019-03-15T21:22:43.634Z,10.80
2019-03-15T21:26:54.111Z,10.80
2019-03-15T21:31:02.363Z,10.70
2019-03-15T21:35:15.086Z,10.70
2019-03-15T21:39:22.603Z,10.70
2019-03-15T21:43:30.081Z,10.70
2019-03-15T21:47:37.604Z,10.70
2019-03-15T21:51:46.408Z,10.60
2019-03-15T21:55:54.133Z,10.60
2019-03-15T22:00:01.603Z,10.60
2019-03-15T22:04:09.708Z,10.60
2019-03-15T22:08:20.663Z,10.60
2019-03-15T22:12:28.177Z,10.60
2019-03-15T22:16:36.327Z,10.60
2019-03-15T22:20:43.875Z,10.60
2019-03-15T22:24:51.337Z,10.60
2019-03-15T22:28:58.800Z,10.50
2019-03-15T22:33:06.321Z,10.50
2019-03-15T22:37:14.471Z,10.50
2019-03-15T22:41:22.601Z,10.50
2019-03-15T22:45:30.756Z,10.60
2019-03-15T22:49:39.066Z,10.60
2019-03-15T22:53:47.210Z,10.50
2019-03-15T22:58:00.175Z,10.50
2019-03-15T23:02:03.597Z,10.50
2019-03-15T23:06:11.723Z,10.50
2019-03-15T23:10:19.859Z,10.50
2019-03-15T23:14:27.353Z,10.50
2019-03-15T23:18:34.864Z,10.40
2019-03-15T23:22:42.369Z,10.40
2019-03-15T23:26:49.845Z,10.40
2019-03-15T23:30:57.994Z,10.40
2019-03-15T23:35:05.461Z,10.40
2019-03-15T23:39:12.926Z,10.40
2019-03-15T23:43:20.385Z,10.40
2019-03-15T23:47:27.845Z,10.40
2019-03-15T23:51:35.304Z,10.40
2019-03-15T23:55:42.769Z,10.40
2019-03-15T23:59:50.841Z,10.40
